Time;durP1;ratioP1;P1;durP2;ratioP2;P2;SDS_P1;SDS_P2;PMS_P1;PMS_P2;Temp;Humidity;BMP_temperature;BMP_pressure;BME280_temperature;BME280_humidity;BME280_pressure;Samples;Min_cycle;Max_cycle;Signal;HPM_P1;HPM_P2
2023/12/26 00:01:45;;;;;;;0.95;0.95;;;8.80;99.90;;;;;;6280683;22;20182;-81
2023/12/26 00:04:15;;;;;;;0.40;0.40;;;8.70;99.90;;;;;;6281209;22;20171;-80
2023/12/26 00:06:45;;;;;;;0.40;0.40;;;8.80;99.90;;;;;;6281287;22;20232;-82
2023/12/26 00:09:13;;;;;;;0.88;0.88;;;8.80;99.90;;;;;;6279951;22;20195;-80
2023/12/26 00:11:44;;;;;;;0.50;0.50;;;8.90;99.90;;;;;;6280605;22;20213;-80
2023/12/26 00:14:16;;;;;;;1.10;1.02;;;8.90;99.90;;;;;;6280258;22;20175;-82
2023/12/26 00:16:44;;;;;;;0.40;0.40;;;8.90;99.90;;;;;;6252894;22;20167;-83
2023/12/26 00:19:12;;;;;;;0.50;0.50;;;9.00;99.90;;;;;;6279163;22;20225;-82
2023/12/26 00:21:40;;;;;;;0.40;0.40;;;9.00;99.90;;;;;;6278915;22;20395;-81
2023/12/26 00:24:07;;;;;;;0.60;0.60;;;9.00;99.90;;;;;;6253412;22;20202;-81
2023/12/26 00:26:38;;;;;;;0.30;0.30;;;8.90;99.90;;;;;;6279790;22;20167;-81
2023/12/26 00:29:08;;;;;;;0.40;0.40;;;8.90;99.90;;;;;;6279703;22;20175;-82
2023/12/26 00:31:41;;;;;;;2.08;1.90;;;9.00;99.90;;;;;;6279804;22;20175;-81
2023/12/26 00:34:08;;;;;;;1.98;1.88;;;8.90;99.90;;;;;;6253455;22;20186;-80
2023/12/26 00:36:36;;;;;;;2.25;1.85;;;9.00;99.90;;;;;;6279333;22;20178;-83
2023/12/26 00:39:03;;;;;;;0.40;0.40;;;9.00;99.90;;;;;;6280527;22;20191;-82
2023/12/26 00:41:31;;;;;;;0.40;0.40;;;8.90;99.90;;;;;;6280180;22;20359;-82
2023/12/26 00:43:58;;;;;;;1.05;1.05;;;8.90;99.90;;;;;;6282301;22;20201;-83
2023/12/26 00:46:27;;;;;;;0.40;0.40;;;8.90;99.90;;;;;;6280375;22;20227;-81
2023/12/26 00:48:57;;;;;;;0.50;0.50;;;8.90;99.90;;;;;;6282203;22;20201;-81
2023/12/26 00:51:25;;;;;;;0.50;0.50;;;8.80;99.90;;;;;;6253887;22;20203;-80
2023/12/26 00:53:53;;;;;;;0.40;0.40;;;9.10;99.90;;;;;;6259081;22;20186;-82
2023/12/26 00:56:21;;;;;;;0.40;0.40;;;8.80;99.90;;;;;;6252092;22;20478;-82
2023/12/26 00:58:48;;;;;;;0.40;0.40;;;8.90;99.90;;;;;;6252497;22;20198;-81
2023/12/26 01:01:16;;;;;;;0.40;0.40;;;9.00;99.90;;;;;;6280068;22;20207;-82
2023/12/26 01:03:43;;;;;;;1.05;1.02;;;9.00;99.90;;;;;;6280351;22;20243;-81
2023/12/26 01:06:10;;;;;;;0.40;0.40;;;9.10;99.90;;;;;;6252904;22;20189;-82
2023/12/26 01:08:39;;;;;;;0.60;0.60;;;9.10;99.90;;;;;;6278460;22;20209;-80
2023/12/26 01:11:06;;;;;;;1.42;1.33;;;9.20;99.90;;;;;;6279091;22;20203;-80
2023/12/26 01:13:36;;;;;;;0.60;0.60;;;9.30;99.90;;;;;;6279319;22;20238;-82
2023/12/26 01:16:04;;;;;;;0.90;0.90;;;9.30;99.90;;;;;;6279453;22;20501;-81
2023/12/26 01:18:31;;;;;;;0.40;0.40;;;9.20;99.90;;;;;;6278771;22;20657;-80
2023/12/26 01:20:59;;;;;;;0.40;0.40;;;9.10;99.90;;;;;;6271539;22;20167;-82
2023/12/26 01:23:27;;;;;;;0.40;0.40;;;9.00;99.90;;;;;;6302064;22;20199;-82
2023/12/26 01:25:54;;;;;;;0.98;0.98;;;9.10;99.90;;;;;;6280794;22;20209;-80
2023/12/26 01:28:21;;;;;;;0.80;0.80;;;9.10;99.90;;;;;;6279496;22;20179;-80
2023/12/26 01:30:48;;;;;;;3.03;2.47;;;9.00;99.90;;;;;;6279470;22;20203;-81
2023/12/26 01:33:15;;;;;;;0.82;0.82;;;9.00;99.90;;;;;;6279666;22;20179;-79
2023/12/26 01:35:43;;;;;;;1.05;1.02;;;9.00;99.90;;;;;;6280626;22;20243;-81
2023/12/26 01:38:10;;;;;;;0.40;0.40;;;8.90;99.90;;;;;;6281145;22;20182;-79
2023/12/26 01:40:40;;;;;;;0.40;0.40;;;9.00;99.90;;;;;;6282126;22;20183;-80
2023/12/26 01:43:07;;;;;;;0.60;0.60;;;9.00;99.90;;;;;;6281680;22;20179;-80
2023/12/26 01:45:35;;;;;;;0.40;0.40;;;9.00;99.90;;;;;;6282893;22;20173;-79
2023/12/26 01:48:04;;;;;;;1.65;1.15;;;8.90;99.90;;;;;;6285206;22;20182;-81
2023/12/26 01:50:33;;;;;;;0.50;0.50;;;8.90;99.90;;;;;;6295164;22;20190;-80
2023/12/26 01:53:02;;;;;;;2.15;1.20;;;9.00;99.90;;;;;;6297227;22;20198;-81
2023/12/26 01:55:30;;;;;;;0.50;0.50;;;9.00;99.90;;;;;;6297473;22;20224;-81
2023/12/26 01:57:58;;;;;;;0.75;0.75;;;9.00;99.90;;;;;;6296265;22;20167;-80
2023/12/26 02:00:25;;;;;;;0.40;0.40;;;9.10;99.90;;;;;;6297494;22;20364;-80
2023/12/26 02:02:54;;;;;;;0.40;0.40;;;9.10;99.90;;;;;;6295243;22;20186;-80
2023/12/26 02:05:23;;;;;;;0.40;0.40;;;9.10;99.90;;;;;;6294031;22;20174;-80
2023/12/26 02:07:50;;;;;;;0.40;0.40;;;9.20;99.90;;;;;;6291790;22;20175;-81
2023/12/26 02:10:17;;;;;;;0.50;0.50;;;9.20;99.90;;;;;;6287133;22;20377;-80
2023/12/26 02:12:44;;;;;;;0.50;0.50;;;9.20;99.90;;;;;;6280533;22;20201;-81
2023/12/26 02:15:13;;;;;;;0.52;0.52;;;9.20;99.90;;;;;;6283166;22;20171;-80
2023/12/26 02:17:43;;;;;;;0.30;0.30;;;9.30;99.90;;;;;;6302579;22;20219;-80
2023/12/26 02:20:10;;;;;;;0.45;0.45;;;9.30;99.90;;;;;;6302717;22;20162;-80
2023/12/26 02:22:39;;;;;;;0.32;0.32;;;9.30;99.90;;;;;;6304145;22;20174;-79
2023/12/26 02:25:08;;;;;;;0.40;0.40;;;9.30;99.90;;;;;;6293022;22;20711;-80
2023/12/26 02:27:37;;;;;;;0.35;0.35;;;9.40;99.90;;;;;;6282469;22;20533;-80
2023/12/26 02:30:09;;;;;;;0.57;0.57;;;9.40;99.90;;;;;;6284082;22;20218;-81
2023/12/26 02:32:38;;;;;;;0.40;0.40;;;9.40;99.90;;;;;;6281682;22;20400;-81
2023/12/26 02:35:07;;;;;;;0.43;0.43;;;9.40;99.90;;;;;;6253974;22;20171;-80
2023/12/26 02:37:36;;;;;;;0.40;0.40;;;9.40;99.90;;;;;;6281454;22;20323;-81
2023/12/26 02:40:07;;;;;;;0.40;0.40;;;9.40;99.90;;;;;;6281224;22;20210;-81
2023/12/26 02:42:34;;;;;;;0.40;0.40;;;9.40;99.90;;;;;;6280995;22;20182;-81
2023/12/26 02:45:01;;;;;;;0.40;0.40;;;9.50;99.90;;;;;;6280892;22;20227;-80
2023/12/26 02:47:29;;;;;;;0.40;0.40;;;9.50;99.90;;;;;;6281295;22;20187;-81
2023/12/26 02:49:58;;;;;;;0.40;0.40;;;9.50;99.90;;;;;;6281227;22;20270;-80
2023/12/26 02:52:25;;;;;;;0.40;0.40;;;9.50;99.90;;;;;;6281656;22;20179;-80
2023/12/26 02:54:52;;;;;;;0.40;0.40;;;9.50;99.90;;;;;;6281428;22;20171;-81
2023/12/26 02:57:19;;;;;;;0.50;0.50;;;9.50;99.90;;;;;;6284805;22;20179;-81
2023/12/26 02:59:47;;;;;;;0.40;0.40;;;9.50;99.90;;;;;;6296653;22;20485;-81
2023/12/26 03:02:14;;;;;;;0.40;0.40;;;9.60;99.90;;;;;;6301105;22;20186;-80
2023/12/26 03:04:41;;;;;;;0.40;0.40;;;9.50;99.90;;;;;;6304756;22;20163;-80
2023/12/26 03:07:08;;;;;;;0.40;0.40;;;9.40;99.90;;;;;;6273095;22;20174;-80
2023/12/26 03:09:35;;;;;;;0.40;0.40;;;9.50;99.90;;;;;;6283686;22;20182;-81
2023/12/26 03:12:03;;;;;;;0.40;0.40;;;9.50;99.90;;;;;;6255241;22;20202;-81
2023/12/26 03:14:30;;;;;;;0.40;0.40;;;9.40;99.90;;;;;;6281416;22;20179;-80
2023/12/26 03:16:59;;;;;;;1.25;1.15;;;9.50;99.90;;;;;;6280824;22;20213;-81
2023/12/26 03:19:26;;;;;;;0.40;0.40;;;9.50;99.90;;;;;;6253606;22;20292;-80
2023/12/26 03:21:54;;;;;;;0.85;0.85;;;9.50;99.90;;;;;;6281248;22;20189;-81
2023/12/26 03:24:21;;;;;;;0.40;0.40;;;9.50;99.90;;;;;;6280804;22;20422;-81
2023/12/26 03:26:48;;;;;;;0.40;0.40;;;9.50;99.90;;;;;;6280142;22;20499;-81
2023/12/26 03:29:15;;;;;;;0.40;0.40;;;9.70;99.90;;;;;;6253206;22;20179;-80
2023/12/26 03:31:44;;;;;;;0.40;0.40;;;9.50;99.90;;;;;;6279438;22;20561;-80
2023/12/26 03:34:11;;;;;;;0.50;0.50;;;9.40;99.90;;;;;;6279664;22;20488;-80
2023/12/26 03:36:44;;;;;;;0.40;0.40;;;9.40;99.90;;;;;;6280173;22;20202;-80
2023/12/26 03:39:12;;;;;;;2.03;1.52;;;9.40;99.90;;;;;;6279310;22;20187;-81
2023/12/26 03:41:39;;;;;;;0.40;0.40;;;9.50;99.90;;;;;;6280129;22;20179;-81
2023/12/26 03:44:06;;;;;;;0.40;0.40;;;9.40;99.90;;;;;;6279841;22;20216;-81
2023/12/26 03:46:33;;;;;;;0.40;0.40;;;9.50;99.90;;;;;;6280694;22;20209;-81
2023/12/26 03:49:00;;;;;;;0.43;0.43;;;9.50;99.90;;;;;;6293407;22;20163;-81
2023/12/26 03:51:28;;;;;;;0.60;0.60;;;9.40;99.90;;;;;;6304093;22;20206;-81
2023/12/26 03:53:55;;;;;;;3.35;1.95;;;9.40;99.90;;;;;;6289947;22;20171;-79
2023/12/26 03:56:28;;;;;;;0.40;0.40;;;9.40;99.90;;;;;;6287485;22;20178;-81
2023/12/26 03:58:55;;;;;;;0.40;0.40;;;9.40;99.90;;;;;;6285129;22;20180;-81
2023/12/26 04:01:23;;;;;;;0.40;0.40;;;9.60;99.90;;;;;;6253621;22;20237;-82
2023/12/26 04:03:52;;;;;;;0.93;0.93;;;9.70;99.90;;;;;;6278926;22;20190;-81
2023/12/26 04:06:20;;;;;;;0.40;0.40;;;9.80;99.90;;;;;;6280117;22;20204;-80
2023/12/26 04:08:47;;;;;;;0.40;0.40;;;9.80;99.90;;;;;;6280488;22;20281;-81
2023/12/26 04:11:14;;;;;;;2.33;1.38;;;9.80;99.90;;;;;;6281806;22;20199;-82
2023/12/26 04:13:41;;;;;;;0.40;0.40;;;9.90;99.90;;;;;;6280368;22;20206;-80
2023/12/26 04:16:08;;;;;;;1.65;1.55;;;9.90;99.90;;;;;;6252802;22;20363;-82
2023/12/26 04:18:35;;;;;;;0.40;0.40;;;9.90;99.90;;;;;;6278835;22;20179;-81
2023/12/26 04:21:03;;;;;;;0.40;0.40;;;10.00;99.90;;;;;;6283210;22;20174;-80
2023/12/26 04:23:29;;;;;;;0.40;0.40;;;10.00;99.90;;;;;;6282919;22;20175;-80
2023/12/26 04:25:57;;;;;;;0.40;0.40;;;10.00;99.90;;;;;;6280662;22;20191;-81
2023/12/26 04:28:24;;;;;;;0.40;0.40;;;10.00;99.90;;;;;;6280736;22;20179;-80
2023/12/26 04:30:51;;;;;;;0.40;0.40;;;10.10;99.90;;;;;;6281356;22;20522;-80
2023/12/26 04:33:19;;;;;;;0.40;0.40;;;10.00;99.90;;;;;;6281678;22;20179;-79
2023/12/26 04:35:49;;;;;;;0.40;0.40;;;10.00;99.90;;;;;;6281077;22;20403;-80
2023/12/26 04:38:17;;;;;;;0.40;0.40;;;10.00;99.90;;;;;;6253101;22;20209;-82
2023/12/26 04:40:44;;;;;;;0.40;0.40;;;10.00;99.90;;;;;;6280563;22;20194;-79
2023/12/26 04:43:11;;;;;;;0.40;0.40;;;10.00;99.90;;;;;;6280581;22;20183;-80
2023/12/26 04:45:38;;;;;;;0.40;0.40;;;10.00;99.90;;;;;;6280524;22;20534;-80
2023/12/26 04:48:07;;;;;;;0.40;0.40;;;10.00;99.90;;;;;;6280486;22;20279;-78
2023/12/26 04:50:35;;;;;;;0.40;0.40;;;9.90;99.90;;;;;;6280525;22;20206;-78
2023/12/26 04:53:06;;;;;;;0.40;0.40;;;10.00;99.90;;;;;;6280722;22;20179;-79
2023/12/26 04:55:33;;;;;;;0.40;0.40;;;10.00;99.90;;;;;;6280254;22;20383;-78
2023/12/26 04:58:00;;;;;;;0.40;0.40;;;10.00;99.90;;;;;;6280892;22;20198;-78
2023/12/26 05:00:27;;;;;;;0.40;0.40;;;9.90;99.90;;;;;;6281012;22;20179;-80
2023/12/26 05:02:55;;;;;;;0.40;0.40;;;9.90;99.90;;;;;;6280302;22;20243;-80
2023/12/26 05:05:23;;;;;;;0.40;0.40;;;10.00;99.90;;;;;;6279023;22;20202;-81
2023/12/26 05:07:50;;;;;;;0.40;0.40;;;9.90;99.90;;;;;;6278755;22;20187;-82
2023/12/26 05:10:19;;;;;;;0.50;0.50;;;10.00;99.90;;;;;;6278682;22;20197;-80
2023/12/26 05:12:46;;;;;;;0.40;0.40;;;10.00;99.90;;;;;;6278660;22;20368;-80
2023/12/26 05:15:15;;;;;;;0.50;0.50;;;10.00;99.90;;;;;;6278854;22;20179;-79
2023/12/26 05:17:42;;;;;;;0.40;0.40;;;10.00;99.90;;;;;;6227577;22;20179;-80
2023/12/26 05:20:10;;;;;;;0.40;0.40;;;9.90;99.90;;;;;;6279842;22;20186;-81
2023/12/26 05:22:41;;;;;;;0.40;0.40;;;9.90;99.90;;;;;;6280246;22;20187;-80
2023/12/26 05:25:10;;;;;;;0.68;0.68;;;9.90;99.90;;;;;;6280195;22;20273;-82
2023/12/26 05:27:37;;;;;;;0.40;0.40;;;9.90;99.90;;;;;;6252200;22;20209;-82
2023/12/26 05:30:06;;;;;;;0.40;0.40;;;9.90;99.90;;;;;;6253849;22;20179;-84
2023/12/26 05:32:33;;;;;;;0.40;0.40;;;10.00;99.90;;;;;;6281133;22;20267;-81
2023/12/26 05:35:06;;;;;;;0.40;0.40;;;10.00;99.90;;;;;;6281264;22;20244;-83
2023/12/26 05:37:34;;;;;;;0.40;0.40;;;10.00;99.90;;;;;;6280228;22;20197;-81
2023/12/26 05:40:01;;;;;;;0.40;0.40;;;10.00;99.90;;;;;;6280653;22;20594;-81
2023/12/26 05:42:29;;;;;;;0.40;0.40;;;10.10;99.90;;;;;;6280811;22;20218;-81
2023/12/26 05:44:56;;;;;;;0.60;0.60;;;10.10;99.90;;;;;;6280665;22;20518;-82
2023/12/26 05:47:23;;;;;;;0.40;0.40;;;10.10;99.90;;;;;;6281124;22;20182;-81
2023/12/26 05:49:52;;;;;;;0.50;0.50;;;10.20;99.90;;;;;;6280150;22;20242;-81
2023/12/26 05:52:19;;;;;;;0.40;0.40;;;10.10;99.90;;;;;;6280515;22;20387;-79
2023/12/26 05:54:46;;;;;;;0.40;0.40;;;10.10;99.90;;;;;;6280121;22;20221;-79
2023/12/26 05:57:13;;;;;;;0.40;0.40;;;10.10;99.90;;;;;;6281797;22;20181;-79
2023/12/26 05:59:40;;;;;;;0.40;0.40;;;10.10;99.90;;;;;;6281155;22;20229;-79
2023/12/26 06:02:08;;;;;;;0.40;0.40;;;10.10;99.90;;;;;;6281599;22;20556;-78
2023/12/26 06:04:34;;;;;;;0.40;0.40;;;10.10;99.90;;;;;;6255219;22;20242;-81
2023/12/26 06:07:02;;;;;;;0.40;0.40;;;10.10;99.90;;;;;;6254820;22;20210;-79
2023/12/26 06:09:29;;;;;;;0.40;0.40;;;10.10;99.90;;;;;;6281506;22;20224;-79
2023/12/26 06:11:56;;;;;;;0.40;0.40;;;10.00;99.90;;;;;;6281310;22;20203;-81
2023/12/26 06:14:24;;;;;;;0.40;0.40;;;9.90;99.90;;;;;;6280989;22;20183;-79
2023/12/26 06:16:51;;;;;;;0.40;0.40;;;9.90;99.90;;;;;;6287676;22;20181;-79
2023/12/26 06:19:20;;;;;;;0.40;0.40;;;9.90;99.90;;;;;;6304828;22;20222;-79
2023/12/26 06:21:47;;;;;;;0.40;0.40;;;9.90;99.90;;;;;;6293947;22;20179;-82
2023/12/26 06:24:17;;;;;;;0.40;0.40;;;9.90;99.90;;;;;;6282785;22;20190;-79
2023/12/26 06:26:45;;;;;;;0.40;0.40;;;9.90;99.90;;;;;;6282102;22;20179;-79
2023/12/26 06:29:12;;;;;;;0.40;0.40;;;9.90;99.90;;;;;;6281760;22;20226;-80
2023/12/26 06:31:39;;;;;;;0.40;0.40;;;9.90;99.90;;;;;;6282002;22;20230;-81
2023/12/26 06:34:05;;;;;;;0.40;0.40;;;10.00;99.90;;;;;;6254709;22;20228;-81
2023/12/26 06:36:33;;;;;;;0.40;0.40;;;10.00;99.90;;;;;;6281559;22;20202;-81
2023/12/26 06:39:01;;;;;;;0.40;0.40;;;10.00;99.90;;;;;;6281570;22;20214;-80
2023/12/26 06:41:29;;;;;;;0.40;0.40;;;10.00;99.90;;;;;;6256537;22;20242;-80
2023/12/26 06:43:56;;;;;;;0.40;0.40;;;10.00;99.90;;;;;;6288261;22;20193;-80
2023/12/26 06:46:23;;;;;;;0.40;0.40;;;9.90;99.90;;;;;;6301567;22;20210;-79
2023/12/26 06:48:50;;;;;;;0.40;0.40;;;9.80;99.90;;;;;;6304167;22;20171;-81
2023/12/26 06:51:18;;;;;;;0.40;0.40;;;9.70;99.90;;;;;;6302703;22;20186;-79
2023/12/26 06:53:44;;;;;;;0.40;0.40;;;9.70;99.90;;;;;;6290305;22;20236;-80
2023/12/26 06:56:12;;;;;;;0.38;0.38;;;9.50;99.90;;;;;;6281685;22;20225;-80
2023/12/26 06:58:39;;;;;;;0.40;0.40;;;9.50;99.90;;;;;;6282436;22;20192;-79
2023/12/26 07:01:10;;;;;;;0.40;0.40;;;9.50;99.90;;;;;;6281169;22;20167;-80
2023/12/26 07:03:37;;;;;;;0.40;0.40;;;9.50;99.90;;;;;;6281951;22;20179;-80
2023/12/26 07:06:05;;;;;;;0.50;0.50;;;9.50;99.90;;;;;;6281140;22;20194;-80
2023/12/26 07:08:32;;;;;;;0.40;0.40;;;9.50;99.90;;;;;;6281084;22;20179;-78
2023/12/26 07:10:59;;;;;;;0.40;0.40;;;9.40;99.90;;;;;;6281018;22;20222;-80
2023/12/26 07:13:27;;;;;;;0.40;0.40;;;9.50;99.90;;;;;;6253544;22;20171;-80
2023/12/26 07:15:55;;;;;;;0.40;0.40;;;9.50;99.90;;;;;;6253642;22;20186;-80
2023/12/26 07:18:22;;;;;;;0.40;0.40;;;9.40;99.90;;;;;;6279976;22;20262;-82
2023/12/26 07:20:50;;;;;;;0.40;0.40;;;9.50;99.90;;;;;;6280685;22;20268;-80
2023/12/26 07:23:18;;;;;;;0.40;0.40;;;9.50;99.90;;;;;;6253731;22;20183;-81
2023/12/26 07:25:46;;;;;;;0.40;0.40;;;9.50;99.90;;;;;;6253979;22;20179;-80
2023/12/26 07:28:17;;;;;;;0.40;0.40;;;9.50;99.90;;;;;;6280716;22;20178;-79
2023/12/26 07:30:46;;;;;;;0.40;0.40;;;9.50;99.90;;;;;;6280987;22;20580;-80
2023/12/26 07:33:13;;;;;;;0.40;0.40;;;9.50;99.90;;;;;;6281106;22;20185;-80
2023/12/26 07:35:40;;;;;;;0.50;0.50;;;9.60;99.90;;;;;;6281245;22;20187;-80
2023/12/26 07:38:07;;;;;;;0.40;0.40;;;9.60;99.90;;;;;;6280527;22;20209;-78
2023/12/26 07:40:34;;;;;;;0.40;0.40;;;9.70;99.90;;;;;;6278046;22;20229;-80
2023/12/26 07:43:01;;;;;;;0.40;0.40;;;9.70;99.90;;;;;;6253730;22;20189;-76
2023/12/26 07:45:28;;;;;;;0.50;0.50;;;9.80;99.90;;;;;;6288874;22;20163;-79
2023/12/26 07:47:55;;;;;;;0.40;0.40;;;10.00;99.90;;;;;;6299580;22;20207;-81
2023/12/26 07:50:22;;;;;;;0.40;0.40;;;10.00;99.90;;;;;;6299514;22;20249;-81
2023/12/26 07:52:50;;;;;;;0.30;0.30;;;10.00;99.90;;;;;;6300309;22;20237;-81
2023/12/26 07:55:17;;;;;;;0.40;0.40;;;10.10;99.90;;;;;;6284204;22;20175;-80
2023/12/26 07:57:44;;;;;;;0.50;0.50;;;10.20;99.90;;;;;;6281678;22;20503;-80
2023/12/26 08:00:12;;;;;;;0.50;0.50;;;10.20;99.90;;;;;;6253249;22;20183;-80
2023/12/26 08:02:40;;;;;;;0.40;0.40;;;10.20;99.90;;;;;;6253720;22;20179;-80
2023/12/26 08:05:07;;;;;;;0.40;0.40;;;10.20;99.90;;;;;;6253986;22;20242;-81
2023/12/26 08:07:35;;;;;;;0.40;0.40;;;10.20;99.90;;;;;;6280037;22;20238;-80
2023/12/26 08:10:02;;;;;;;0.40;0.40;;;10.10;99.90;;;;;;6280109;22;20179;-79
2023/12/26 08:12:29;;;;;;;0.40;0.40;;;10.20;99.90;;;;;;6252874;22;20226;-79
2023/12/26 08:14:56;;;;;;;0.40;0.40;;;10.20;99.90;;;;;;6279498;22;20520;-80
2023/12/26 08:17:25;;;;;;;0.40;0.40;;;10.30;99.90;;;;;;6279668;22;20185;-81
2023/12/26 08:19:52;;;;;;;0.40;0.40;;;10.20;99.90;;;;;;6281805;22;20174;-83
2023/12/26 08:22:19;;;;;;;0.60;0.60;;;10.30;99.90;;;;;;6254527;22;20576;-79
2023/12/26 08:24:47;;;;;;;0.40;0.40;;;10.20;99.90;;;;;;6253167;22;20175;-82
2023/12/26 08:27:14;;;;;;;0.68;0.68;;;10.20;99.90;;;;;;6278852;22;20183;-80
2023/12/26 08:29:42;;;;;;;0.70;0.70;;;10.30;99.90;;;;;;6279554;22;20190;-81
2023/12/26 08:32:09;;;;;;;2.47;1.13;;;10.40;99.90;;;;;;6280144;22;20201;-81
2023/12/26 08:34:37;;;;;;;0.40;0.40;;;10.40;99.90;;;;;;6279766;22;20189;-81
2023/12/26 08:37:05;;;;;;;0.50;0.50;;;10.40;99.90;;;;;;6279462;22;20193;-80
2023/12/26 08:39:32;;;;;;;0.50;0.50;;;10.40;99.90;;;;;;6277812;22;20503;-79
2023/12/26 08:41:58;;;;;;;0.50;0.50;;;10.40;99.90;;;;;;6279186;22;20213;-81
2023/12/26 08:44:25;;;;;;;0.40;0.40;;;10.60;99.90;;;;;;6253978;22;20182;-80
2023/12/26 08:46:52;;;;;;;0.40;0.40;;;10.70;99.90;;;;;;6299506;22;20186;-81
2023/12/26 08:49:19;;;;;;;0.40;0.40;;;10.80;99.90;;;;;;6297269;22;20197;-81
2023/12/26 08:51:47;;;;;;;0.40;0.40;;;10.90;99.90;;;;;;6279768;22;20383;-80
2023/12/26 08:54:14;;;;;;;0.40;0.40;;;11.00;99.90;;;;;;6252799;22;20167;-81
2023/12/26 08:56:42;;;;;;;0.40;0.40;;;11.00;99.90;;;;;;6279752;22;20179;-80
2023/12/26 08:59:10;;;;;;;0.50;0.50;;;11.00;99.90;;;;;;6278726;22;20278;-82
2023/12/26 09:01:37;;;;;;;0.40;0.40;;;11.10;99.90;;;;;;6278568;22;20183;-81
2023/12/26 09:04:04;;;;;;;0.40;0.40;;;11.10;99.90;;;;;;6278712;22;20183;-82
2023/12/26 09:06:33;;;;;;;0.50;0.50;;;11.10;99.90;;;;;;6278726;22;20182;-80
2023/12/26 09:09:02;;;;;;;0.40;0.40;;;11.10;99.90;;;;;;6279153;22;20183;-78
2023/12/26 09:11:29;;;;;;;0.50;0.50;;;11.00;99.90;;;;;;6281420;22;20576;-81
2023/12/26 09:13:56;;;;;;;0.40;0.40;;;11.10;99.90;;;;;;6253159;22;20221;-81
2023/12/26 09:16:24;;;;;;;0.40;0.40;;;10.90;99.90;;;;;;6278792;22;20806;-79
2023/12/26 09:18:50;;;;;;;0.40;0.40;;;11.00;99.90;;;;;;6278987;22;20179;-79
2023/12/26 09:21:18;;;;;;;0.40;0.40;;;10.90;99.90;;;;;;6278707;22;20351;-79
2023/12/26 09:23:45;;;;;;;0.63;0.63;;;11.00;99.90;;;;;;6276612;22;20179;-80
2023/12/26 09:26:14;;;;;;;0.40;0.40;;;11.00;99.90;;;;;;6278843;22;20189;-81
2023/12/26 09:28:42;;;;;;;0.40;0.40;;;11.10;99.90;;;;;;6279002;22;20201;-78
2023/12/26 09:31:09;;;;;;;0.60;0.60;;;11.10;99.90;;;;;;6279305;22;20530;-83
2023/12/26 09:33:36;;;;;;;0.40;0.40;;;11.10;99.90;;;;;;6280229;22;20634;-79
2023/12/26 09:36:04;;;;;;;0.40;0.40;;;11.20;99.90;;;;;;6279239;22;20183;-80
2023/12/26 09:38:31;;;;;;;0.40;0.40;;;11.30;99.90;;;;;;6251831;22;20189;-80
2023/12/26 09:40:58;;;;;;;0.40;0.40;;;11.30;99.90;;;;;;6227963;22;20192;-79
2023/12/26 09:43:26;;;;;;;1.40;1.30;;;11.20;99.90;;;;;;6278539;22;20183;-81
2023/12/26 09:45:55;;;;;;;0.40;0.40;;;11.30;99.90;;;;;;6279054;22;20181;-80
2023/12/26 09:48:24;;;;;;;0.40;0.40;;;11.30;99.90;;;;;;6278642;22;20170;-83
2023/12/26 09:50:54;;;;;;;0.50;0.50;;;11.10;99.90;;;;;;6278274;22;20228;-79
2023/12/26 09:53:24;;;;;;;0.50;0.50;;;11.30;99.90;;;;;;6253678;22;20585;-81
2023/12/26 09:55:53;;;;;;;0.50;0.50;;;11.40;99.90;;;;;;6278797;22;20228;-79
2023/12/26 09:58:21;;;;;;;0.50;0.50;;;11.50;99.90;;;;;;6278859;22;20246;-80
2023/12/26 10:00:49;;;;;;;0.60;0.60;;;11.50;99.90;;;;;;6278808;22;20241;-82
2023/12/26 10:03:18;;;;;;;0.40;0.40;;;11.60;99.90;;;;;;6278809;22;20420;-81
2023/12/26 10:05:46;;;;;;;0.50;0.50;;;11.60;99.90;;;;;;6279325;22;20242;-80
2023/12/26 10:08:13;;;;;;;1.55;1.45;;;11.70;99.90;;;;;;6278447;22;20183;-79
2023/12/26 10:10:40;;;;;;;0.40;0.40;;;11.70;99.90;;;;;;6278698;22;20175;-79
2023/12/26 10:13:07;;;;;;;0.40;0.40;;;11.70;99.90;;;;;;6279077;22;20199;-84
2023/12/26 10:15:34;;;;;;;0.40;0.40;;;11.70;99.90;;;;;;6279426;22;20213;-82
2023/12/26 10:18:02;;;;;;;0.40;0.40;;;11.70;99.90;;;;;;6278987;22;20178;-80
2023/12/26 10:20:32;;;;;;;0.40;0.40;;;11.70;99.90;;;;;;6252718;22;20459;-79
2023/12/26 10:23:03;;;;;;;0.40;0.40;;;11.70;99.90;;;;;;6279057;22;20183;-80
2023/12/26 10:25:30;;;;;;;0.40;0.40;;;11.70;99.90;;;;;;6278758;22;20183;-81
2023/12/26 10:28:00;;;;;;;0.50;0.50;;;11.70;99.90;;;;;;6279741;22;20171;-79
2023/12/26 10:30:28;;;;;;;0.82;0.82;;;11.70;99.90;;;;;;6278862;22;20197;-80
2023/12/26 10:33:02;;;;;;;1.52;1.27;;;11.70;99.90;;;;;;6279066;22;20809;-80
2023/12/26 10:35:31;;;;;;;0.77;0.77;;;11.80;99.90;;;;;;6279520;22;20207;-80
2023/12/26 10:37:59;;;;;;;0.50;0.50;;;11.80;99.90;;;;;;6251956;22;20332;-81
2023/12/26 10:40:26;;;;;;;0.47;0.47;;;11.90;99.90;;;;;;6279905;22;20490;-79
2023/12/26 10:42:54;;;;;;;0.50;0.50;;;11.80;99.90;;;;;;6281313;22;20179;-80
2023/12/26 10:45:21;;;;;;;0.50;0.50;;;11.80;99.90;;;;;;6282414;22;20182;-80
2023/12/26 10:47:50;;;;;;;0.50;0.50;;;11.80;99.90;;;;;;6280992;22;20243;-81
2023/12/26 10:50:19;;;;;;;0.50;0.50;;;11.70;99.90;;;;;;6280694;22;20183;-80
2023/12/26 10:53:15;;;;;;;2.65;2.13;;;11.70;99.90;;;;;;6281034;22;20561;-78
2023/12/26 10:55:46;;;;;;;0.50;0.50;;;11.80;99.90;;;;;;6281003;22;20352;-79
2023/12/26 10:58:29;;;;;;;0.70;0.70;;;11.60;99.90;;;;;;6281020;22;20167;-82
2023/12/26 11:00:57;;;;;;;0.50;0.50;;;11.60;99.90;;;;;;6280792;22;20533;-80
2023/12/26 13:53:46;;;;;;;0.50;0.50;;;9.30;99.90;;;;;;6284257;22;20199;-81
2023/12/26 13:56:13;;;;;;;0.40;0.40;;;9.40;99.90;;;;;;6257838;22;20171;-81
2023/12/26 13:58:40;;;;;;;0.55;0.55;;;9.30;99.90;;;;;;6284305;22;20491;-81
2023/12/26 14:01:07;;;;;;;0.40;0.40;;;9.30;99.90;;;;;;6284792;22;20171;-81
2023/12/26 14:03:35;;;;;;;0.40;0.40;;;9.20;99.90;;;;;;6284277;22;20202;-80
2023/12/26 14:06:02;;;;;;;1.10;1.10;;;9.10;99.90;;;;;;6284230;22;20234;-80
2023/12/26 14:08:29;;;;;;;0.40;0.40;;;8.90;99.90;;;;;;6284078;22;20367;-81
2023/12/26 14:10:56;;;;;;;0.40;0.40;;;8.80;99.90;;;;;;6285075;22;20175;-80
2023/12/26 14:13:23;;;;;;;1.77;0.98;;;8.70;99.90;;;;;;6284705;22;20538;-82
2023/12/26 14:15:50;;;;;;;0.70;0.70;;;8.60;99.90;;;;;;6284940;22;20180;-81
2023/12/26 14:18:16;;;;;;;0.70;0.70;;;8.50;99.90;;;;;;6286059;22;20178;-80
2023/12/26 14:20:43;;;;;;;0.77;0.77;;;8.50;99.90;;;;;;6286426;22;20179;-81
2023/12/26 14:23:10;;;;;;;0.40;0.40;;;8.50;99.90;;;;;;6286269;22;20175;-80
2023/12/26 14:25:37;;;;;;;0.50;0.50;;;8.60;99.90;;;;;;6285702;22;20436;-80
2023/12/26 14:28:04;;;;;;;0.40;0.40;;;8.60;99.90;;;;;;6286239;22;20506;-81
2023/12/26 14:30:31;;;;;;;0.50;0.50;;;8.50;99.90;;;;;;6286184;22;20348;-83
2023/12/26 14:32:58;;;;;;;0.40;0.40;;;8.40;99.90;;;;;;6286426;22;20191;-82
2023/12/26 14:35:26;;;;;;;0.47;0.47;;;8.40;99.90;;;;;;6285772;22;20155;-81
2023/12/26 14:37:53;;;;;;;1.35;1.25;;;8.50;99.90;;;;;;6285873;22;20186;-80
2023/12/26 14:40:20;;;;;;;0.47;0.47;;;8.50;99.90;;;;;;6286170;22;20231;-82
2023/12/26 14:42:47;;;;;;;0.60;0.60;;;8.60;99.90;;;;;;6258933;22;20474;-81
2023/12/26 14:45:15;;;;;;;0.40;0.40;;;8.70;99.90;;;;;;6259527;22;20359;-80
2023/12/26 14:47:42;;;;;;;0.40;0.40;;;8.70;99.90;;;;;;6285750;22;20213;-79
2023/12/26 14:50:09;;;;;;;0.40;0.40;;;8.70;99.90;;;;;;6259139;22;20181;-82
2023/12/26 14:52:36;;;;;;;1.00;0.93;;;8.80;99.90;;;;;;6285539;22;20175;-81
2023/12/26 14:55:03;;;;;;;0.40;0.40;;;8.80;99.90;;;;;;6285131;22;20178;-81
2023/12/26 14:57:30;;;;;;;1.58;1.48;;;8.80;99.90;;;;;;6285256;22;20213;-80
2023/12/26 14:59:57;;;;;;;0.40;0.40;;;8.80;99.90;;;;;;6285655;22;20178;-80
2023/12/26 15:02:25;;;;;;;0.55;0.55;;;8.80;99.90;;;;;;6285834;22;20543;-81
2023/12/26 15:04:52;;;;;;;3.65;3.33;;;8.90;99.90;;;;;;6285875;22;20174;-78
2023/12/26 15:07:20;;;;;;;0.40;0.40;;;8.90;99.90;;;;;;6285481;22;20175;-80
2023/12/26 15:09:46;;;;;;;0.40;0.40;;;8.60;99.90;;;;;;6286494;22;20175;-81
2023/12/26 15:12:14;;;;;;;0.60;0.60;;;8.20;99.90;;;;;;6260245;22;20175;-79
2023/12/26 15:14:41;;;;;;;0.50;0.50;;;8.10;99.90;;;;;;6286535;22;20191;-79
2023/12/26 15:17:11;;;;;;;0.40;0.40;;;8.10;99.90;;;;;;6287608;22;20179;-82
2023/12/26 15:19:38;;;;;;;0.50;0.50;;;8.00;99.90;;;;;;6286496;22;20193;-80
2023/12/26 15:22:06;;;;;;;0.50;0.50;;;8.00;99.90;;;;;;6285581;22;20178;-79
2023/12/26 15:24:33;;;;;;;0.40;0.40;;;8.00;99.90;;;;;;6286085;22;20384;-81
2023/12/26 15:27:00;;;;;;;0.50;0.50;;;7.90;99.90;;;;;;6287249;22;20175;-82
2023/12/26 15:29:27;;;;;;;0.40;0.40;;;7.90;99.90;;;;;;6298271;22;20174;-81
2023/12/26 15:31:54;;;;;;;0.40;0.40;;;8.00;99.90;;;;;;6293893;22;20175;-81
2023/12/26 15:34:22;;;;;;;0.40;0.40;;;7.90;99.90;;;;;;6298678;22;20552;-80
2023/12/26 15:36:49;;;;;;;0.40;0.40;;;7.80;99.90;;;;;;6299183;22;20166;-80
2023/12/26 15:39:17;;;;;;;0.40;0.40;;;7.80;99.90;;;;;;6298301;22;20163;-82
2023/12/26 15:41:47;;;;;;;0.55;0.55;;;7.80;99.90;;;;;;6298725;22;20171;-81
2023/12/26 15:44:14;;;;;;;0.90;0.90;;;7.90;99.90;;;;;;6298957;22;20205;-80
2023/12/26 15:46:41;;;;;;;0.50;0.50;;;8.00;99.90;;;;;;6298580;22;20179;-83